sensor_id;sensor_type;location;lat;lon;timestamp;P1;durP1;ratioP1;P2;durP2;ratioP2
68923;SDS011;55961;52.156;20.942;2022-07-19T00:02:01;12.00;;;4.23;;
68923;SDS011;55961;52.156;20.942;2022-07-19T00:04:27;7.63;;;4.18;;
68923;SDS011;55961;52.156;20.942;2022-07-19T00:06:53;9.32;;;4.28;;
68923;SDS011;55961;52.156;20.942;2022-07-19T00:09:20;6.90;;;3.90;;
68923;SDS011;55961;52.156;20.942;2022-07-19T00:11:47;9.50;;;4.20;;
68923;SDS011;55961;52.156;20.942;2022-07-19T00:14:13;9.25;;;4.20;;
68923;SDS011;55961;52.156;20.942;2022-07-19T00:16:39;8.07;;;3.85;;
68923;SDS011;55961;52.156;20.942;2022-07-19T00:19:05;9.65;;;4.00;;
68923;SDS011;55961;52.156;20.942;2022-07-19T00:21:31;8.33;;;3.93;;
68923;SDS011;55961;52.156;20.942;2022-07-19T00:23:57;8.02;;;4.40;;
68923;SDS011;55961;52.156;20.942;2022-07-19T00:26:23;8.02;;;4.20;;
68923;SDS011;55961;52.156;20.942;2022-07-19T00:28:48;8.37;;;4.17;;
68923;SDS011;55961;52.156;20.942;2022-07-19T00:31:14;10.20;;;4.43;;
68923;SDS011;55961;52.156;20.942;2022-07-19T00:33:40;9.20;;;4.28;;
68923;SDS011;55961;52.156;20.942;2022-07-19T00:36:06;8.87;;;4.53;;
68923;SDS011;55961;52.156;20.942;2022-07-19T00:38:32;10.98;;;4.47;;
68923;SDS011;55961;52.156;20.942;2022-07-19T00:41:00;8.40;;;4.25;;
68923;SDS011;55961;52.156;20.942;2022-07-19T00:43:27;9.57;;;4.38;;
68923;SDS011;55961;52.156;20.942;2022-07-19T00:45:53;7.38;;;4.07;;
68923;SDS011;55961;52.156;20.942;2022-07-19T00:48:19;8.33;;;4.20;;
68923;SDS011;55961;52.156;20.942;2022-07-19T00:50:45;8.85;;;4.22;;
68923;SDS011;55961;52.156;20.942;2022-07-19T00:53:11;11.15;;;4.32;;
68923;SDS011;55961;52.156;20.942;2022-07-19T00:55:39;9.07;;;4.25;;
68923;SDS011;55961;52.156;20.942;2022-07-19T00:58:06;10.37;;;4.20;;
68923;SDS011;55961;52.156;20.942;2022-07-19T01:00:34;12.90;;;5.10;;
68923;SDS011;55961;52.156;20.942;2022-07-19T01:03:00;9.35;;;4.45;;
68923;SDS011;55961;52.156;20.942;2022-07-19T01:05:27;8.43;;;4.70;;
68923;SDS011;55961;52.156;20.942;2022-07-19T01:07:53;8.10;;;3.90;;
68923;SDS011;55961;52.156;20.942;2022-07-19T01:10:19;9.23;;;4.77;;
68923;SDS011;55961;52.156;20.942;2022-07-19T01:12:46;9.77;;;5.15;;
68923;SDS011;55961;52.156;20.942;2022-07-19T01:15:13;10.18;;;5.07;;
68923;SDS011;55961;52.156;20.942;2022-07-19T01:17:40;9.30;;;4.70;;
68923;SDS011;55961;52.156;20.942;2022-07-19T01:20:06;9.57;;;4.80;;
68923;SDS011;55961;52.156;20.942;2022-07-19T01:22:32;10.93;;;4.68;;
68923;SDS011;55961;52.156;20.942;2022-07-19T01:24:58;9.32;;;4.90;;
68923;SDS011;55961;52.156;20.942;2022-07-19T01:27:24;9.30;;;5.67;;
68923;SDS011;55961;52.156;20.942;2022-07-19T01:29:50;8.90;;;4.80;;
68923;SDS011;55961;52.156;20.942;2022-07-19T01:32:16;8.45;;;4.15;;
68923;SDS011;55961;52.156;20.942;2022-07-19T01:34:42;9.37;;;4.60;;
68923;SDS011;55961;52.156;20.942;2022-07-19T01:37:07;10.85;;;4.72;;
68923;SDS011;55961;52.156;20.942;2022-07-19T01:39:33;8.97;;;4.70;;
68923;SDS011;55961;52.156;20.942;2022-07-19T01:41:59;8.68;;;4.60;;
68923;SDS011;55961;52.156;20.942;2022-07-19T01:44:25;10.50;;;5.35;;
68923;SDS011;55961;52.156;20.942;2022-07-19T01:46:51;10.73;;;4.80;;
68923;SDS011;55961;52.156;20.942;2022-07-19T01:49:16;10.38;;;5.00;;
68923;SDS011;55961;52.156;20.942;2022-07-19T01:51:42;8.38;;;4.57;;
68923;SDS011;55961;52.156;20.942;2022-07-19T01:54:08;9.60;;;4.97;;
68923;SDS011;55961;52.156;20.942;2022-07-19T01:56:34;11.18;;;5.00;;
68923;SDS011;55961;52.156;20.942;2022-07-19T01:59:00;12.00;;;4.90;;
68923;SDS011;55961;52.156;20.942;2022-07-19T02:01:25;10.35;;;5.05;;
68923;SDS011;55961;52.156;20.942;2022-07-19T02:03:51;9.67;;;4.80;;
68923;SDS011;55961;52.156;20.942;2022-07-19T02:06:17;15.38;;;5.38;;
68923;SDS011;55961;52.156;20.942;2022-07-19T02:08:43;10.80;;;5.22;;
68923;SDS011;55961;52.156;20.942;2022-07-19T02:11:09;9.67;;;4.80;;
68923;SDS011;55961;52.156;20.942;2022-07-19T02:14:05;21.17;;;12.65;;
68923;SDS011;55961;52.156;20.942;2022-07-19T02:16:32;12.30;;;5.65;;
68923;SDS011;55961;52.156;20.942;2022-07-19T02:18:59;12.18;;;5.65;;
68923;SDS011;55961;52.156;20.942;2022-07-19T02:21:25;9.90;;;5.43;;
68923;SDS011;55961;52.156;20.942;2022-07-19T02:23:51;10.30;;;5.53;;
68923;SDS011;55961;52.156;20.942;2022-07-19T02:26:17;12.15;;;6.25;;
68923;SDS011;55961;52.156;20.942;2022-07-19T02:28:43;15.52;;;6.57;;
68923;SDS011;55961;52.156;20.942;2022-07-19T02:31:08;11.33;;;5.83;;
68923;SDS011;55961;52.156;20.942;2022-07-19T02:33:34;12.52;;;6.05;;
68923;SDS011;55961;52.156;20.942;2022-07-19T02:36:00;12.25;;;5.88;;
68923;SDS011;55961;52.156;20.942;2022-07-19T02:38:26;11.63;;;6.50;;
68923;SDS011;55961;52.156;20.942;2022-07-19T02:40:52;13.13;;;5.85;;
68923;SDS011;55961;52.156;20.942;2022-07-19T02:43:18;12.10;;;6.38;;
68923;SDS011;55961;52.156;20.942;2022-07-19T02:45:44;9.13;;;5.30;;
68923;SDS011;55961;52.156;20.942;2022-07-19T02:48:09;9.38;;;5.50;;
68923;SDS011;55961;52.156;20.942;2022-07-19T02:50:35;10.50;;;5.23;;
68923;SDS011;55961;52.156;20.942;2022-07-19T02:53:01;10.95;;;5.75;;
68923;SDS011;55961;52.156;20.942;2022-07-19T02:55:27;11.65;;;5.47;;
68923;SDS011;55961;52.156;20.942;2022-07-19T02:57:53;9.50;;;5.03;;
68923;SDS011;55961;52.156;20.942;2022-07-19T03:00:19;10.60;;;6.20;;
68923;SDS011;55961;52.156;20.942;2022-07-19T03:02:45;10.38;;;4.88;;
68923;SDS011;55961;52.156;20.942;2022-07-19T03:05:11;10.73;;;5.63;;
68923;SDS011;55961;52.156;20.942;2022-07-19T03:07:37;9.02;;;5.35;;
68923;SDS011;55961;52.156;20.942;2022-07-19T03:10:03;10.83;;;5.50;;
68923;SDS011;55961;52.156;20.942;2022-07-19T03:12:30;51.50;;;11.43;;
68923;SDS011;55961;52.156;20.942;2022-07-19T03:14:56;16.70;;;6.63;;
68923;SDS011;55961;52.156;20.942;2022-07-19T03:17:22;10.40;;;5.53;;
68923;SDS011;55961;52.156;20.942;2022-07-19T03:19:48;14.13;;;7.53;;
68923;SDS011;55961;52.156;20.942;2022-07-19T03:22:13;9.37;;;5.33;;
68923;SDS011;55961;52.156;20.942;2022-07-19T03:24:39;13.15;;;6.15;;
68923;SDS011;55961;52.156;20.942;2022-07-19T03:27:05;12.25;;;5.70;;
68923;SDS011;55961;52.156;20.942;2022-07-19T03:29:31;11.27;;;6.47;;
68923;SDS011;55961;52.156;20.942;2022-07-19T03:31:57;13.48;;;6.60;;
68923;SDS011;55961;52.156;20.942;2022-07-19T03:34:24;8.93;;;5.37;;
68923;SDS011;55961;52.156;20.942;2022-07-19T03:36:51;15.60;;;8.35;;
68923;SDS011;55961;52.156;20.942;2022-07-19T03:39:17;9.40;;;5.60;;
68923;SDS011;55961;52.156;20.942;2022-07-19T03:41:43;13.43;;;6.57;;
68923;SDS011;55961;52.156;20.942;2022-07-19T03:44:08;12.53;;;6.27;;
68923;SDS011;55961;52.156;20.942;2022-07-19T03:46:34;11.10;;;6.47;;
68923;SDS011;55961;52.156;20.942;2022-07-19T03:49:00;12.70;;;5.85;;
68923;SDS011;55961;52.156;20.942;2022-07-19T03:51:26;10.47;;;5.40;;
68923;SDS011;55961;52.156;20.942;2022-07-19T03:53:52;10.75;;;5.70;;
68923;SDS011;55961;52.156;20.942;2022-07-19T03:56:18;12.13;;;5.68;;
68923;SDS011;55961;52.156;20.942;2022-07-19T03:58:46;11.10;;;6.05;;
68923;SDS011;55961;52.156;20.942;2022-07-19T04:01:15;10.20;;;5.37;;
68923;SDS011;55961;52.156;20.942;2022-07-19T04:03:42;12.77;;;5.93;;
68923;SDS011;55961;52.156;20.942;2022-07-19T04:06:10;9.32;;;5.20;;
68923;SDS011;55961;52.156;20.942;2022-07-19T04:08:36;13.20;;;5.45;;
68923;SDS011;55961;52.156;20.942;2022-07-19T04:11:03;10.38;;;5.70;;
68923;SDS011;55961;52.156;20.942;2022-07-19T04:13:31;11.10;;;5.40;;
68923;SDS011;55961;52.156;20.942;2022-07-19T04:15:58;10.90;;;5.30;;
68923;SDS011;55961;52.156;20.942;2022-07-19T04:18:24;9.98;;;5.18;;
68923;SDS011;55961;52.156;20.942;2022-07-19T04:20:50;11.40;;;5.70;;
68923;SDS011;55961;52.156;20.942;2022-07-19T04:23:15;9.57;;;5.57;;
68923;SDS011;55961;52.156;20.942;2022-07-19T04:25:42;9.60;;;5.40;;
68923;SDS011;55961;52.156;20.942;2022-07-19T04:28:14;10.97;;;5.63;;
68923;SDS011;55961;52.156;20.942;2022-07-19T04:32:03;9.27;;;5.70;;
68923;SDS011;55961;52.156;20.942;2022-07-19T04:34:32;9.13;;;5.10;;
68923;SDS011;55961;52.156;20.942;2022-07-19T04:37:18;9.63;;;4.97;;
68923;SDS011;55961;52.156;20.942;2022-07-19T04:39:43;9.90;;;5.87;;
68923;SDS011;55961;52.156;20.942;2022-07-19T04:42:09;8.40;;;5.57;;
68923;SDS011;55961;52.156;20.942;2022-07-19T04:44:35;10.98;;;4.50;;
68923;SDS011;55961;52.156;20.942;2022-07-19T04:47:01;10.03;;;5.30;;
68923;SDS011;55961;52.156;20.942;2022-07-19T04:49:27;9.93;;;5.22;;
68923;SDS011;55961;52.156;20.942;2022-07-19T04:51:53;9.40;;;5.07;;
68923;SDS011;55961;52.156;20.942;2022-07-19T04:54:19;8.87;;;5.00;;
68923;SDS011;55961;52.156;20.942;2022-07-19T04:56:45;10.60;;;5.32;;
68923;SDS011;55961;52.156;20.942;2022-07-19T04:59:10;11.20;;;5.05;;
68923;SDS011;55961;52.156;20.942;2022-07-19T05:01:36;9.27;;;4.93;;
68923;SDS011;55961;52.156;20.942;2022-07-19T05:04:02;10.70;;;5.20;;
68923;SDS011;55961;52.156;20.942;2022-07-19T05:06:28;15.48;;;5.40;;
68923;SDS011;55961;52.156;20.942;2022-07-19T05:08:54;9.85;;;4.88;;
68923;SDS011;55961;52.156;20.942;2022-07-19T05:11:21;9.37;;;5.00;;
68923;SDS011;55961;52.156;20.942;2022-07-19T05:13:47;16.05;;;4.95;;
68923;SDS011;55961;52.156;20.942;2022-07-19T05:16:13;9.45;;;4.93;;
68923;SDS011;55961;52.156;20.942;2022-07-19T05:18:39;10.83;;;4.87;;
68923;SDS011;55961;52.156;20.942;2022-07-19T05:21:05;9.73;;;4.75;;
68923;SDS011;55961;52.156;20.942;2022-07-19T05:23:31;11.23;;;5.25;;
68923;SDS011;55961;52.156;20.942;2022-07-19T05:25:57;12.77;;;5.13;;
68923;SDS011;55961;52.156;20.942;2022-07-19T05:28:23;9.38;;;5.10;;
68923;SDS011;55961;52.156;20.942;2022-07-19T05:30:49;9.07;;;4.43;;
68923;SDS011;55961;52.156;20.942;2022-07-19T05:33:15;9.60;;;4.90;;
68923;SDS011;55961;52.156;20.942;2022-07-19T05:35:41;10.23;;;5.15;;
68923;SDS011;55961;52.156;20.942;2022-07-19T05:38:08;8.63;;;4.43;;
68923;SDS011;55961;52.156;20.942;2022-07-19T05:40:33;9.85;;;5.15;;
68923;SDS011;55961;52.156;20.942;2022-07-19T05:42:59;10.43;;;4.73;;
68923;SDS011;55961;52.156;20.942;2022-07-19T05:45:26;13.55;;;4.65;;
68923;SDS011;55961;52.156;20.942;2022-07-19T05:47:52;11.27;;;4.75;;
68923;SDS011;55961;52.156;20.942;2022-07-19T05:50:18;12.30;;;5.22;;
68923;SDS011;55961;52.156;20.942;2022-07-19T05:52:44;10.20;;;4.90;;
68923;SDS011;55961;52.156;20.942;2022-07-19T05:55:10;10.18;;;4.80;;
68923;SDS011;55961;52.156;20.942;2022-07-19T05:57:35;10.93;;;4.88;;
68923;SDS011;55961;52.156;20.942;2022-07-19T06:00:02;11.55;;;5.00;;
68923;SDS011;55961;52.156;20.942;2022-07-19T06:02:28;11.10;;;5.10;;
68923;SDS011;55961;52.156;20.942;2022-07-19T06:04:54;11.70;;;4.45;;
68923;SDS011;55961;52.156;20.942;2022-07-19T06:07:20;11.35;;;4.40;;
68923;SDS011;55961;52.156;20.942;2022-07-19T06:09:46;10.10;;;4.93;;
68923;SDS011;55961;52.156;20.942;2022-07-19T06:12:12;13.15;;;4.68;;
68923;SDS011;55961;52.156;20.942;2022-07-19T06:14:38;10.38;;;5.05;;
68923;SDS011;55961;52.156;20.942;2022-07-19T06:17:03;12.50;;;5.23;;
68923;SDS011;55961;52.156;20.942;2022-07-19T06:19:30;12.93;;;4.22;;
68923;SDS011;55961;52.156;20.942;2022-07-19T06:21:55;9.65;;;4.75;;
68923;SDS011;55961;52.156;20.942;2022-07-19T06:24:21;8.57;;;4.10;;
68923;SDS011;55961;52.156;20.942;2022-07-19T06:26:47;11.93;;;4.25;;
68923;SDS011;55961;52.156;20.942;2022-07-19T06:29:13;11.83;;;4.90;;
68923;SDS011;55961;52.156;20.942;2022-07-19T06:31:39;10.70;;;4.25;;
68923;SDS011;55961;52.156;20.942;2022-07-19T06:34:04;10.07;;;4.60;;
68923;SDS011;55961;52.156;20.942;2022-07-19T06:36:30;12.77;;;4.83;;
68923;SDS011;55961;52.156;20.942;2022-07-19T06:38:57;8.63;;;4.55;;
68923;SDS011;55961;52.156;20.942;2022-07-19T06:41:23;9.82;;;4.32;;
68923;SDS011;55961;52.156;20.942;2022-07-19T06:43:49;9.60;;;4.70;;
68923;SDS011;55961;52.156;20.942;2022-07-19T06:46:15;12.27;;;3.90;;
68923;SDS011;55961;52.156;20.942;2022-07-19T06:48:40;8.25;;;4.15;;
68923;SDS011;55961;52.156;20.942;2022-07-19T06:51:07;8.90;;;4.10;;
68923;SDS011;55961;52.156;20.942;2022-07-19T06:53:33;13.13;;;4.53;;
68923;SDS011;55961;52.156;20.942;2022-07-19T06:55:59;8.68;;;4.55;;
68923;SDS011;55961;52.156;20.942;2022-07-19T06:58:25;12.38;;;4.35;;
68923;SDS011;55961;52.156;20.942;2022-07-19T07:00:51;8.40;;;4.90;;
68923;SDS011;55961;52.156;20.942;2022-07-19T07:03:17;7.57;;;3.78;;
68923;SDS011;55961;52.156;20.942;2022-07-19T07:05:44;9.35;;;3.78;;
68923;SDS011;55961;52.156;20.942;2022-07-19T07:08:10;8.65;;;4.07;;
68923;SDS011;55961;52.156;20.942;2022-07-19T07:10:36;10.30;;;5.00;;
68923;SDS011;55961;52.156;20.942;2022-07-19T07:13:02;8.93;;;4.07;;
68923;SDS011;55961;52.156;20.942;2022-07-19T07:15:28;9.73;;;4.30;;
68923;SDS011;55961;52.156;20.942;2022-07-19T07:17:54;8.32;;;4.20;;
68923;SDS011;55961;52.156;20.942;2022-07-19T07:20:20;8.05;;;4.13;;
68923;SDS011;55961;52.156;20.942;2022-07-19T07:22:46;12.23;;;4.17;;
68923;SDS011;55961;52.156;20.942;2022-07-19T07:25:12;11.73;;;4.25;;
68923;SDS011;55961;52.156;20.942;2022-07-19T07:27:38;9.60;;;4.03;;
68923;SDS011;55961;52.156;20.942;2022-07-19T07:30:04;10.33;;;4.33;;
68923;SDS011;55961;52.156;20.942;2022-07-19T07:32:31;8.90;;;3.90;;
68923;SDS011;55961;52.156;20.942;2022-07-19T07:34:57;8.07;;;4.15;;
68923;SDS011;55961;52.156;20.942;2022-07-19T07:37:23;13.48;;;4.40;;
68923;SDS011;55961;52.156;20.942;2022-07-19T07:39:49;9.83;;;4.03;;
68923;SDS011;55961;52.156;20.942;2022-07-19T07:42:15;8.45;;;4.13;;
68923;SDS011;55961;52.156;20.942;2022-07-19T07:44:41;7.00;;;4.23;;
68923;SDS011;55961;52.156;20.942;2022-07-19T07:47:07;7.00;;;3.60;;
68923;SDS011;55961;52.156;20.942;2022-07-19T07:49:34;11.07;;;4.32;;
68923;SDS011;55961;52.156;20.942;2022-07-19T07:52:03;8.50;;;3.67;;
68923;SDS011;55961;52.156;20.942;2022-07-19T07:54:29;9.50;;;4.22;;
68923;SDS011;55961;52.156;20.942;2022-07-19T07:56:55;10.13;;;4.40;;
68923;SDS011;55961;52.156;20.942;2022-07-19T07:59:21;12.98;;;4.20;;
68923;SDS011;55961;52.156;20.942;2022-07-19T08:01:46;9.13;;;4.13;;
68923;SDS011;55961;52.156;20.942;2022-07-19T08:04:12;7.40;;;4.20;;
68923;SDS011;55961;52.156;20.942;2022-07-19T08:06:38;12.10;;;4.32;;
68923;SDS011;55961;52.156;20.942;2022-07-19T08:09:04;10.48;;;4.13;;
68923;SDS011;55961;52.156;20.942;2022-07-19T08:11:30;11.00;;;4.53;;
68923;SDS011;55961;52.156;20.942;2022-07-19T08:13:56;9.52;;;4.40;;
68923;SDS011;55961;52.156;20.942;2022-07-19T08:16:22;9.43;;;4.40;;
68923;SDS011;55961;52.156;20.942;2022-07-19T08:18:48;9.43;;;4.20;;
68923;SDS011;55961;52.156;20.942;2022-07-19T08:21:14;11.90;;;4.70;;
68923;SDS011;55961;52.156;20.942;2022-07-19T08:23:40;10.25;;;4.13;;
68923;SDS011;55961;52.156;20.942;2022-07-19T08:26:07;11.10;;;4.30;;
68923;SDS011;55961;52.156;20.942;2022-07-19T08:28:33;9.40;;;4.43;;
68923;SDS011;55961;52.156;20.942;2022-07-19T08:30:59;10.02;;;4.50;;
68923;SDS011;55961;52.156;20.942;2022-07-19T08:33:25;12.48;;;4.50;;
68923;SDS011;55961;52.156;20.942;2022-07-19T08:35:51;13.60;;;4.30;;
68923;SDS011;55961;52.156;20.942;2022-07-19T08:38:17;9.95;;;4.43;;
68923;SDS011;55961;52.156;20.942;2022-07-19T08:40:43;9.97;;;4.50;;
68923;SDS011;55961;52.156;20.942;2022-07-19T08:43:10;8.48;;;3.88;;
68923;SDS011;55961;52.156;20.942;2022-07-19T08:45:37;9.10;;;4.20;;
68923;SDS011;55961;52.156;20.942;2022-07-19T08:48:06;9.07;;;3.90;;
68923;SDS011;55961;52.156;20.942;2022-07-19T08:50:32;9.48;;;3.70;;
68923;SDS011;55961;52.156;20.942;2022-07-19T08:52:59;10.77;;;3.83;;
68923;SDS011;55961;52.156;20.942;2022-07-19T08:55:25;10.48;;;3.92;;
68923;SDS011;55961;52.156;20.942;2022-07-19T08:57:51;10.27;;;4.15;;
68923;SDS011;55961;52.156;20.942;2022-07-19T09:00:24;7.78;;;4.40;;
68923;SDS011;55961;52.156;20.942;2022-07-19T09:02:51;6.75;;;3.97;;
68923;SDS011;55961;52.156;20.942;2022-07-19T09:05:17;12.43;;;4.17;;
68923;SDS011;55961;52.156;20.942;2022-07-19T09:07:43;9.25;;;4.15;;
68923;SDS011;55961;52.156;20.942;2022-07-19T09:10:25;8.85;;;4.15;;
68923;SDS011;55961;52.156;20.942;2022-07-19T09:13:11;8.15;;;4.07;;
68923;SDS011;55961;52.156;20.942;2022-07-19T09:15:39;7.23;;;4.10;;
68923;SDS011;55961;52.156;20.942;2022-07-19T09:18:16;10.75;;;4.43;;
68923;SDS011;55961;52.156;20.942;2022-07-19T09:20:49;9.40;;;4.22;;
68923;SDS011;55961;52.156;20.942;2022-07-19T09:23:20;10.80;;;4.30;;
68923;SDS011;55961;52.156;20.942;2022-07-19T09:25:47;9.52;;;4.22;;
68923;SDS011;55961;52.156;20.942;2022-07-19T09:28:19;8.30;;;4.00;;
68923;SDS011;55961;52.156;20.942;2022-07-19T09:30:48;8.50;;;4.15;;
68923;SDS011;55961;52.156;20.942;2022-07-19T09:40:53;8.40;;;4.00;;
68923;SDS011;55961;52.156;20.942;2022-07-19T09:51:33;7.45;;;3.90;;
68923;SDS011;55961;52.156;20.942;2022-07-19T09:54:04;9.27;;;3.60;;
68923;SDS011;55961;52.156;20.942;2022-07-19T09:56:31;7.72;;;3.38;;
68923;SDS011;55961;52.156;20.942;2022-07-19T09:58:58;9.70;;;4.05;;
68923;SDS011;55961;52.156;20.942;2022-07-19T10:01:25;10.70;;;4.00;;
68923;SDS011;55961;52.156;20.942;2022-07-19T10:03:53;6.57;;;3.25;;
68923;SDS011;55961;52.156;20.942;2022-07-19T10:06:21;5.80;;;3.20;;
68923;SDS011;55961;52.156;20.942;2022-07-19T10:08:49;7.35;;;3.90;;
68923;SDS011;55961;52.156;20.942;2022-07-19T10:11:15;8.15;;;3.90;;
68923;SDS011;55961;52.156;20.942;2022-07-19T10:13:42;6.85;;;3.50;;
68923;SDS011;55961;52.156;20.942;2022-07-19T10:16:11;5.55;;;3.22;;
68923;SDS011;55961;52.156;20.942;2022-07-19T10:18:44;6.70;;;3.37;;
68923;SDS011;55961;52.156;20.942;2022-07-19T10:21:37;6.20;;;3.00;;
68923;SDS011;55961;52.156;20.942;2022-07-19T10:24:03;8.52;;;3.42;;
68923;SDS011;55961;52.156;20.942;2022-07-19T10:29:12;7.57;;;3.50;;
68923;SDS011;55961;52.156;20.942;2022-07-19T10:31:41;8.07;;;3.27;;
68923;SDS011;55961;52.156;20.942;2022-07-19T10:34:21;7.68;;;3.42;;
68923;SDS011;55961;52.156;20.942;2022-07-19T10:36:48;7.75;;;4.10;;
68923;SDS011;55961;52.156;20.942;2022-07-19T10:44:34;7.13;;;3.63;;
68923;SDS011;55961;52.156;20.942;2022-07-19T10:57:53;5.13;;;3.20;;
68923;SDS011;55961;52.156;20.942;2022-07-19T11:00:52;7.25;;;3.80;;
68923;SDS011;55961;52.156;20.942;2022-07-19T11:05:56;7.18;;;3.65;;
68923;SDS011;55961;52.156;20.942;2022-07-19T11:08:37;7.07;;;3.73;;
68923;SDS011;55961;52.156;20.942;2022-07-19T11:11:14;6.60;;;3.42;;
68923;SDS011;55961;52.156;20.942;2022-07-19T11:13:43;6.63;;;3.88;;
68923;SDS011;55961;52.156;20.942;2022-07-19T11:16:10;6.80;;;3.83;;
68923;SDS011;55961;52.156;20.942;2022-07-19T11:18:36;6.80;;;3.70;;
68923;SDS011;55961;52.156;20.942;2022-07-19T11:21:03;7.20;;;3.73;;
68923;SDS011;55961;52.156;20.942;2022-07-19T11:23:31;10.27;;;3.40;;
68923;SDS011;55961;52.156;20.942;2022-07-19T11:26:08;5.97;;;3.50;;
68923;SDS011;55961;52.156;20.942;2022-07-19T11:28:38;8.57;;;4.15;;
68923;SDS011;55961;52.156;20.942;2022-07-19T11:31:12;7.60;;;3.88;;
68923;SDS011;55961;52.156;20.942;2022-07-19T11:33:49;6.37;;;3.77;;
68923;SDS011;55961;52.156;20.942;2022-07-19T11:36:21;8.88;;;3.90;;
68923;SDS011;55961;52.156;20.942;2022-07-19T11:38:53;9.40;;;4.00;;
68923;SDS011;55961;52.156;20.942;2022-07-19T11:41:28;6.07;;;3.38;;
68923;SDS011;55961;52.156;20.942;2022-07-19T11:43:56;7.20;;;3.50;;
68923;SDS011;55961;52.156;20.942;2022-07-19T11:46:31;9.07;;;3.70;;
68923;SDS011;55961;52.156;20.942;2022-07-19T11:49:01;7.50;;;3.50;;
68923;SDS011;55961;52.156;20.942;2022-07-19T11:51:28;6.75;;;3.20;;
68923;SDS011;55961;52.156;20.942;2022-07-19T11:53:56;7.13;;;3.40;;
68923;SDS011;55961;52.156;20.942;2022-07-19T11:56:27;10.32;;;3.70;;
68923;SDS011;55961;52.156;20.942;2022-07-19T11:58:59;6.20;;;3.47;;
68923;SDS011;55961;52.156;20.942;2022-07-19T12:01:27;7.63;;;3.35;;
68923;SDS011;55961;52.156;20.942;2022-07-19T12:03:55;8.80;;;3.70;;
68923;SDS011;55961;52.156;20.942;2022-07-19T12:09:15;7.32;;;3.58;;
68923;SDS011;55961;52.156;20.942;2022-07-19T12:11:43;8.27;;;3.83;;
68923;SDS011;55961;52.156;20.942;2022-07-19T12:19:44;6.47;;;3.63;;
68923;SDS011;55961;52.156;20.942;2022-07-19T12:24:59;7.13;;;3.50;;
68923;SDS011;55961;52.156;20.942;2022-07-19T12:27:26;8.10;;;3.70;;
68923;SDS011;55961;52.156;20.942;2022-07-19T12:29:55;6.32;;;4.00;;
68923;SDS011;55961;52.156;20.942;2022-07-19T12:32:29;6.82;;;3.60;;
68923;SDS011;55961;52.156;20.942;2022-07-19T12:34:58;6.15;;;3.85;;
68923;SDS011;55961;52.156;20.942;2022-07-19T12:37:36;7.30;;;4.63;;
68923;SDS011;55961;52.156;20.942;2022-07-19T12:40:07;9.02;;;4.25;;
68923;SDS011;55961;52.156;20.942;2022-07-19T12:42:54;6.75;;;3.60;;
68923;SDS011;55961;52.156;20.942;2022-07-19T12:45:32;6.47;;;3.50;;
68923;SDS011;55961;52.156;20.942;2022-07-19T12:48:02;5.47;;;3.53;;
68923;SDS011;55961;52.156;20.942;2022-07-19T12:53:00;5.75;;;3.67;;
68923;SDS011;55961;52.156;20.942;2022-07-19T12:55:28;7.38;;;3.40;;
68923;SDS011;55961;52.156;20.942;2022-07-19T12:57:56;7.75;;;3.25;;
68923;SDS011;55961;52.156;20.942;2022-07-19T13:00:24;6.75;;;3.50;;
68923;SDS011;55961;52.156;20.942;2022-07-19T13:02:51;5.70;;;3.47;;
68923;SDS011;55961;52.156;20.942;2022-07-19T13:05:18;6.50;;;3.60;;
68923;SDS011;55961;52.156;20.942;2022-07-19T13:07:44;8.25;;;3.55;;
68923;SDS011;55961;52.156;20.942;2022-07-19T13:10:10;7.23;;;3.70;;
68923;SDS011;55961;52.156;20.942;2022-07-19T13:12:36;7.83;;;3.70;;
68923;SDS011;55961;52.156;20.942;2022-07-19T13:15:03;7.32;;;3.70;;
68923;SDS011;55961;52.156;20.942;2022-07-19T13:17:29;7.20;;;3.55;;
68923;SDS011;55961;52.156;20.942;2022-07-19T13:19:56;6.57;;;3.22;;
68923;SDS011;55961;52.156;20.942;2022-07-19T13:22:22;7.10;;;3.67;;
68923;SDS011;55961;52.156;20.942;2022-07-19T13:24:48;6.43;;;3.67;;
68923;SDS011;55961;52.156;20.942;2022-07-19T13:27:14;6.30;;;3.40;;
68923;SDS011;55961;52.156;20.942;2022-07-19T13:29:42;6.65;;;3.38;;
68923;SDS011;55961;52.156;20.942;2022-07-19T13:32:08;5.70;;;2.90;;
68923;SDS011;55961;52.156;20.942;2022-07-19T13:34:35;6.97;;;3.63;;
68923;SDS011;55961;52.156;20.942;2022-07-19T13:37:01;8.77;;;3.60;;
68923;SDS011;55961;52.156;20.942;2022-07-19T13:39:28;6.57;;;3.60;;
68923;SDS011;55961;52.156;20.942;2022-07-19T13:41:54;5.60;;;3.30;;
68923;SDS011;55961;52.156;20.942;2022-07-19T13:44:20;6.30;;;3.30;;
68923;SDS011;55961;52.156;20.942;2022-07-19T13:46:46;7.00;;;3.92;;
68923;SDS011;55961;52.156;20.942;2022-07-19T13:49:12;5.80;;;3.55;;
68923;SDS011;55961;52.156;20.942;2022-07-19T13:51:38;6.23;;;3.20;;
68923;SDS011;55961;52.156;20.942;2022-07-19T13:54:04;6.43;;;3.20;;
68923;SDS011;55961;52.156;20.942;2022-07-19T13:56:31;6.90;;;3.58;;
68923;SDS011;55961;52.156;20.942;2022-07-19T13:58:57;5.50;;;3.03;;
68923;SDS011;55961;52.156;20.942;2022-07-19T14:01:22;7.53;;;3.83;;
68923;SDS011;55961;52.156;20.942;2022-07-19T14:03:48;6.22;;;3.60;;
68923;SDS011;55961;52.156;20.942;2022-07-19T14:06:15;7.07;;;3.88;;
68923;SDS011;55961;52.156;20.942;2022-07-19T14:08:41;6.18;;;3.30;;
68923;SDS011;55961;52.156;20.942;2022-07-19T14:11:07;7.60;;;3.77;;
68923;SDS011;55961;52.156;20.942;2022-07-19T14:13:33;9.82;;;4.15;;
68923;SDS011;55961;52.156;20.942;2022-07-19T14:16:00;8.23;;;4.22;;
68923;SDS011;55961;52.156;20.942;2022-07-19T14:18:26;6.88;;;3.70;;
68923;SDS011;55961;52.156;20.942;2022-07-19T14:20:53;7.40;;;3.80;;
68923;SDS011;55961;52.156;20.942;2022-07-19T14:23:19;6.30;;;3.77;;
68923;SDS011;55961;52.156;20.942;2022-07-19T14:25:45;7.50;;;3.38;;
68923;SDS011;55961;52.156;20.942;2022-07-19T14:28:11;7.28;;;3.67;;
68923;SDS011;55961;52.156;20.942;2022-07-19T14:30:37;6.70;;;3.50;;
68923;SDS011;55961;52.156;20.942;2022-07-19T14:33:03;7.03;;;3.72;;
68923;SDS011;55961;52.156;20.942;2022-07-19T14:35:29;7.72;;;3.72;;
68923;SDS011;55961;52.156;20.942;2022-07-19T14:37:55;8.20;;;3.17;;
68923;SDS011;55961;52.156;20.942;2022-07-19T14:40:21;7.80;;;3.37;;
68923;SDS011;55961;52.156;20.942;2022-07-19T14:42:47;7.65;;;3.72;;
68923;SDS011;55961;52.156;20.942;2022-07-19T14:45:12;7.53;;;3.53;;
68923;SDS011;55961;52.156;20.942;2022-07-19T14:47:39;8.30;;;3.80;;
68923;SDS011;55961;52.156;20.942;2022-07-19T14:50:06;8.73;;;3.97;;
68923;SDS011;55961;52.156;20.942;2022-07-19T14:52:33;9.73;;;4.10;;
68923;SDS011;55961;52.156;20.942;2022-07-19T14:55:00;7.82;;;3.20;;
68923;SDS011;55961;52.156;20.942;2022-07-19T14:57:26;7.18;;;3.63;;
68923;SDS011;55961;52.156;20.942;2022-07-19T14:59:51;6.67;;;3.60;;
68923;SDS011;55961;52.156;20.942;2022-07-19T15:02:17;7.78;;;3.80;;
68923;SDS011;55961;52.156;20.942;2022-07-19T15:04:44;5.20;;;3.28;;
68923;SDS011;55961;52.156;20.942;2022-07-19T15:07:11;8.27;;;3.90;;
68923;SDS011;55961;52.156;20.942;2022-07-19T15:09:36;9.63;;;3.13;;
68923;SDS011;55961;52.156;20.942;2022-07-19T15:12:03;7.45;;;3.60;;
68923;SDS011;55961;52.156;20.942;2022-07-19T15:14:29;6.95;;;3.22;;
68923;SDS011;55961;52.156;20.942;2022-07-19T15:16:57;9.27;;;3.10;;
68923;SDS011;55961;52.156;20.942;2022-07-19T15:19:24;7.57;;;3.33;;
68923;SDS011;55961;52.156;20.942;2022-07-19T15:21:49;8.55;;;3.28;;
68923;SDS011;55961;52.156;20.942;2022-07-19T15:24:16;9.73;;;3.85;;